Friday, October 19, 2018, 5:56 PM EDT
Back to Local

KGED, Georgetown Sussex Co Airport

Location: Georgetown, DE, United States Lat: 38.683
Local Time: 5:56 PM EDT (21:56 GMT) Lon: -75.367
Time Zone: US/Eastern Elev: 52 ft

Show me the last for .
Show Decoded

2018-10-19 16:54 METAR KGED 192054Z AUTO 21008KT 10SM CLR 18/07 A3014 RMK AO2 SLP207 T01780067
                 56034 =
2018-10-19 15:54 METAR KGED 191954Z AUTO 22010G18KT 10SM CLR 18/06 A3017 RMK AO2 SLP215 T01830056
                 =
2018-10-19 14:54 METAR KGED 191854Z AUTO 23009KT 10SM CLR 18/06 A3020 RMK AO2 SLP227 T01830061 =
2018-10-19 13:54 METAR KGED 191754Z AUTO 23010G16KT 10SM CLR 18/07 A3024 RMK AO2 SLP241 T01780067
                 10183 20039 58040 =
2018-10-19 12:54 METAR KGED 191654Z AUTO 24009G15KT 10SM CLR 17/06 A3028 RMK AO2 SLP255 T01720056
                 =
2018-10-19 11:54 METAR KGED 191554Z AUTO 22009KT 10SM CLR 16/06 A3032 RMK AO2 SLP269 T01610056 =
2018-10-19 10:54 METAR KGED 191454Z AUTO VRB06KT 10SM CLR 15/06 A3036 RMK AO2 SLP281 T01500056
                 58010 =
2018-10-19 09:54 METAR KGED 191354Z AUTO 00000KT 10SM CLR 13/06 A3038 RMK AO2 SLP288 T01280056 =
2018-10-19 08:54 METAR KGED 191254Z AUTO 20003KT 10SM CLR 08/06 A3039 RMK AO2 SLP292 T00830056 =
2018-10-19 07:54 METAR KGED 191154Z AUTO 00000KT 10SM CLR 04/03 A3039 RMK AO2 SLP291 T00390028
                 10044 20028 53002 =
2018-10-19 06:54 METAR KGED 191054Z AUTO 00000KT 10SM CLR 03/02 A3038 RMK AO2 SLP288 T00330017 =
2018-10-19 05:54 METAR KGED 190954Z AUTO 00000KT 10SM CLR 04/02 A3039 RMK AO2 SLP290 T00390022 =
2018-10-19 04:54 METAR KGED 190854Z AUTO 00000KT 10SM CLR 04/02 A3038 RMK AO2 SLP289 T00390017
                 55001 =
2018-10-19 03:54 METAR KGED 190754Z AUTO 00000KT 10SM CLR 04/02 A3038 RMK AO2 SLP288 T00390022 =
2018-10-19 02:54 METAR KGED 190654Z AUTO 00000KT 10SM CLR 04/02 A3039 RMK AO2 SLP289 T00390022 =
2018-10-19 01:54 METAR KGED 190554Z AUTO 00000KT 10SM CLR 04/02 A3039 RMK AO2 SLP290 T00390022
                 10089 20039 58005 =
2018-10-19 00:54 METAR KGED 190454Z AUTO 00000KT 10SM CLR 05/03 A3040 RMK AO2 SLP293 T00500028
                 401440044 =
2018-10-18 23:54 METAR KGED 190354Z AUTO 00000KT 10SM CLR 05/03 A3040 RMK AO2 SLP294 T00500028 =
2018-10-18 22:54 METAR KGED 190254Z AUTO 00000KT 10SM CLR 06/03 A3040 RMK AO2 SLP295 T00610033
                 53001 =
2018-10-18 21:54 METAR KGED 190154Z AUTO 00000KT 10SM CLR 06/03 A3040 RMK AO2 SLP293 T00610033 =
2018-10-18 20:54 METAR KGED 190054Z AUTO 00000KT 10SM CLR 08/03 A3039 RMK AO2 SLP291 T00830033 =
2018-10-18 19:54 METAR KGED 182354Z AUTO 00000KT 10SM CLR 08/03 A3040 RMK AO2 SLP294 T00830033
                 10144 20083 52010 =
2018-10-18 18:54 METAR KGED 182254Z AUTO 32003KT 10SM CLR 12/02 A3039 RMK AO2 SLP292 T01170017 =

Support USWX by starting your Amazon purchase here.